Latest Coastal Weather Observations for Adelaide Airport

IDS60701

Issued at 12:11 pm CDT Sunday 7 February 2016 (issued every 10 minutes, with the page automatically refreshed every 10 minutes)

About coastal observations | Map of coastal stations | Coastal observations for SA | Marine services | Other Formats
Station Details ID: 023034 Name: ADELAIDE AIRPORT Lat: -34.95 Lon: 138.52 Height: 2.0 m
Data from the previous 72 hours. | See also: Recent months at Adelaide Airport
Date/Time
CDT
Temp

°C
Wind Pressure Rain
since 9am
mm
Weather Cloud Vis
km
Sea
Height
m
Swell
Dir
 
Speed
knots
Gust
knots
hPa Trend Height
m
Period
s
Dir
07/12:00pm 24.9 WSW 8 11 1017.5 F 0.0 Haze Clear 20 - - - -
07/11:30am 24.8 WSW 8 10 1017.6 - 0.0 - - 10 - - - -
07/11:00am 24.5 W 6 9 1017.5 - 0.0 - - 10 - - - -
07/10:30am 24.0 E 3 5 1017.6 - 0.0 - - 10 - - - -
07/10:00am 23.4 SW 5 7 1017.6 - 0.0 - - 10 - - - -
07/09:30am 22.4 WSW 6 8 1017.7 - 0.0 - - 10 - - - -
07/09:00am 22.0 NNW 4 6 1017.5 R 0.0 Fine Clear 25 - - - -
07/08:30am 20.8 NE 3 5 1017.1 - 0.0 - Mostly clear 10 - - - -
07/08:00am 19.7 CALM 0 0 1016.9 - 0.0 - Mostly clear 10 - - - -
07/07:30am 18.1 SE 3 5 1016.8 - 0.0 - Mostly clear 10 - - - -
07/07:00am 17.3 SSW 4 5 1016.6 - 0.0 - - 10 - - - -
07/06:30am 17.6 E 4 5 1016.3 - 0.0 - - 10 - - - -
07/06:00am 17.7 SE 4 5 1016.1 R 0.0 Haze Mostly clear 25 - - - -
07/05:30am 18.7 SW 5 6 1015.8 - 0.0 - - 10 - - - -
07/05:00am 17.5 WSW 5 5 1015.2 - 0.0 - - 10 - - - -
07/04:30am 18.2 CALM 0 4 1015.0 - 0.0 - - 10 - - - -
07/04:00am 18.6 S 5 5 1014.9 - 0.0 - - 10 - - - -
07/03:30am 18.8 SW 2 6 1014.9 - 0.0 - - 10 - - - -
07/03:00am 19.0 ESE 4 5 1014.8 R 0.0 Fine Clear 30 - - - -
07/02:30am 19.4 ESE 5 6 1014.7 - 0.0 - - 10 - - - -
07/02:00am 20.3 SSE 8 10 1014.9 - 0.0 - - 10 - - - -
07/01:30am 20.6 S 10 13 1015.1 - 0.0 - - 10 - - - -
07/01:00am 21.0 SSW 8 11 1015.1 - 0.0 - - 10 - - - -
07/12:30am 21.1 SW 9 11 1015.1 - 0.0 - - 10 - - - -
07/12:00am 21.8 S 6 8 1015.1 R 0.0 Fine Clear 30 - - - -
 
Date/Time
CDT
Temp

°C
Wind Pressure Rain
since 9am
mm
Weather Cloud Vis
km
Sea
Height
m
Swell
Dir
 
Speed
knots
Gust
knots
hPa Trend Height
m
Period
s
Dir
06/11:30pm 22.1 SSE 9 13 1015.0 - 0.0 - - 10 - - - -
06/11:00pm 22.8 S 8 11 1015.2 - 0.0 - - 10 - - - -
06/10:30pm 22.3 SSW 9 11 1015.0 - 0.0 - - 10 - - - -
06/10:00pm 22.5 SW 8 10 1014.6 - 0.0 - - 10 - - - -
06/09:30pm 22.7 SW 8 9 1014.4 - 0.0 - - 10 - - - -
06/09:00pm 23.4 SSW 10 15 1013.9 S 0.0 Haze Mostly clear 25 - - - -
06/08:30pm 23.3 SW 11 15 1013.7 - 0.0 - - 10 - - - -
06/08:00pm 23.4 SW 12 16 1013.5 - 0.0 - - 10 - - - -
06/07:30pm 23.9 SW 12 16 1013.3 - 0.0 - - 10 - - - -
06/07:00pm 24.8 SW 11 14 1013.0 - 0.0 - - 10 - - - -
06/06:30pm 24.8 SW 14 19 1012.9 - 0.0 - - 10 - - - -
06/06:00pm 24.6 SSW 16 19 1012.8 F 0.0 Haze Clear 25 - - - -
06/05:30pm 24.9 SW 15 18 1012.7 - 0.0 - - 10 - - - -
06/05:00pm 25.5 SSW 16 20 1012.8 - 0.0 - Mostly clear 10 - - - -
06/04:30pm 25.7 SW 14 18 1012.9 - 0.0 - Mostly clear 10 - - - -
06/04:00pm 25.3 SSW 13 17 1013.1 - 0.0 - Mostly clear 10 - - - -
06/03:30pm 25.6 SSW 13 16 1013.4 - 0.0 - Mostly clear 10 - - - -
06/03:00pm 25.6 SW 13 16 1013.8 R 0.0 Fine Mostly clear 30 - - - -
06/02:30pm 25.6 SW 14 16 1013.8 - 0.0 - Mostly clear 10 - - - -
06/02:00pm 26.5 SW 13 16 1014.0 - 0.0 - Mostly clear 10 - - - -
06/01:30pm 26.6 WSW 11 14 1014.0 - 0.0 - Mostly clear 10 - - - -
06/01:00pm 26.2 W 9 12 1014.3 - 0.0 - - 10 - - - -
06/12:30pm 26.1 WSW 7 9 1014.6 - 0.0 - - 10 - - - -
06/12:00pm 24.8 WSW 8 9 1015.0 F 0.0 Haze Clear 30 - - - -
06/11:30am 25.4 W 8 9 1015.3 - 0.0 - - 10 - - - -
06/11:00am 26.3 N 4 7 1015.3 - 0.0 - - 10 - - - -
06/10:30am 25.5 W 3 5 1015.3 - 0.0 - - 10 - - - -
06/10:00am 24.3 N 2 5 1015.4 - 0.0 - - 10 - - - -
06/09:30am 23.5 NNE 3 5 1015.5 - 0.0 - - 10 - - - -
06/09:00am 22.8 NE 5 7 1015.3 R 0.0 Haze Clear 25 - - - -
06/08:30am 20.8 NE 6 7 1015.1 - 0.0 - - 10 - - - -
06/08:00am 19.6 NE 5 6 1014.9 - 0.0 - - 10 - - - -
06/07:30am 17.9 NE 7 8 1014.5 - 0.0 - - 10 - - - -
06/07:00am 16.8 NE 7 7 1014.2 - 0.0 - - 10 - - - -
06/06:30am 16.2 ENE 6 7 1013.7 - 0.0 - - 10 - - - -
06/06:00am 16.7 E 2 5 1013.5 F 0.0 Fine Clear 30 - - - -
06/05:30am 18.7 CALM 0 0 1013.5 - 0.0 - - 10 - - - -
06/05:00am 19.3 SSW 3 4 1013.2 - 0.0 - - 10 - - - -
06/04:30am 19.5 SSW 4 5 1013.3 - 0.0 - - 10 - - - -
06/04:00am 19.5 SSW 7 8 1013.5 - 0.0 - - 10 - - - -
06/03:30am 19.8 SSW 7 10 1013.8 - 0.0 - - 10 - - - -
06/03:00am 19.6 SSW 8 9 1014.1 F 0.0 Fine Clear 30 - - - -
06/02:30am 20.0 SSW 7 9 1014.5 - 0.0 - - 10 - - - -
06/02:00am 20.0 S 6 7 1014.6 - 0.0 - - 10 - - - -
06/01:30am 20.1 S 8 11 1014.8 - 0.0 - - 10 - - - -
06/01:00am 19.7 SSE 6 8 1015.0 - 0.0 - - 10 - - - -
06/12:30am 19.5 S 9 11 1015.2 - 0.0 - - 10 - - - -
06/12:00am 18.8 SSE 11 16 1015.5 F 0.0 Fine Clear 30 - - - -
 
Date/Time
CDT
Temp

°C
Wind Pressure Rain
since 9am
mm
Weather Cloud Vis
km
Sea
Height
m
Swell
Dir
 
Speed
knots
Gust
knots
hPa Trend Height
m
Period
s
Dir
05/11:30pm 18.7 SE 8 14 1015.9 - 0.0 - - 10 - - - -
05/11:00pm 18.8 SSE 10 16 1015.9 - 0.0 - - 10 - - - -
05/10:30pm 18.9 SSE 10 14 1016.0 - 0.0 - - 10 - - - -
05/10:00pm 19.4 SSE 12 15 1015.9 - 0.0 - - 10 - - - -
05/09:30pm 20.1 SSE 9 14 1015.8 - 0.0 - - 10 - - - -
05/09:00pm 21.0 S 12 16 1015.5 R 0.0 Fine Clear 30 - - - -
05/08:30pm 22.5 SSE 9 15 1015.3 - 0.0 - - 10 - - - -
05/08:00pm 24.0 SE 11 15 1014.9 - 0.0 - - 10 - - - -
05/07:30pm 25.8 SE 9 13 1014.3 - 0.0 - - 10 - - - -
05/07:00pm 26.4 SSE 11 15 1014.0 - 0.0 - - 10 - - - -
05/06:30pm 26.7 SSE 14 17 1013.7 - 0.0 - - 10 - - - -
05/06:00pm 27.7 SE 14 17 1013.6 F 0.0 Fine Clear 30 - - - -
05/05:30pm 26.9 S 8 13 1013.7 - 0.0 - - 10 - - - -
05/05:00pm 26.0 SSE 7 11 1013.9 - 0.0 - - 10 - - - -
05/04:30pm 26.9 SE 7 14 1014.0 - 0.0 - - 10 - - - -
05/04:00pm 26.6 ESE 8 14 1014.3 - 0.0 - - 10 - - - -
05/03:30pm 26.3 ESE 9 13 1014.8 - 0.0 - - 10 - - - -
05/03:00pm 27.5 ESE 9 15 1015.1 F 0.0 Fine Clear 30 - - - -
05/02:30pm 24.1 SE 8 13 1015.6 - 0.0 - - 10 - - - -
05/02:00pm 23.8 WSW 19 23 1016.1 - 0.0 - - 10 - - - -
05/01:30pm 22.8 WSW 17 20 1016.6 - 0.0 - - 10 - - - -
05/01:00pm 23.3 S 8 13 1017.1 - 0.0 - - 10 - - - -
05/12:30pm 23.4 S 8 12 1017.6 - 0.0 - - 10 - - - -
05/12:00pm 22.2 S 7 13 1017.9 F 0.0 Haze Clear 25 - - - -
05/11:30am 22.1 S 4 9 1018.3 - 0.0 - - 10 - - - -
05/11:00am 20.8 SSE 8 12 1018.8 - 0.0 - Mostly clear 10 - - - -
05/10:30am 19.3 SE 10 14 1019.1 - 0.0 - Mostly clear 10 - - - -
05/10:00am 18.5 SSE 9 13 1019.3 - 0.0 - Mostly clear 10 - - - -
05/09:30am 17.7 SSE 9 14 1019.6 - 0.0 - Mostly clear 10 - - - -
05/09:00am 16.5 SE 11 15 1019.7 F 0.0 Haze Mostly clear 20 - - - -
05/08:30am 16.3 SE 12 17 1019.8 - 0.0 - Mostly clear 10 - - - -
05/08:00am 15.9 SE 8 13 1019.6 - 0.0 - Mostly clear 10 - - - -
05/07:30am 15.6 SE 11 17 1019.5 - 0.0 - Mostly clear 10 - - - -
05/07:00am 15.3 SE 14 18 1019.1 - 0.0 - Mostly clear 10 - - - -
05/06:30am 15.2 SE 11 15 1018.9 - 0.0 - Mostly clear 10 - - - -
05/06:00am 15.1 SE 11 15 1018.6 R 0.0 Fine Mostly cloudy 25 - - - -
05/05:30am 15.5 SSE 12 17 1018.3 - 0.0 - Mostly clear 10 - - - -
05/05:00am 16.1 SSE 9 15 1018.0 - 0.0 - Mostly clear 10 - - - -
05/04:30am 16.0 SSE 10 13 1017.8 - 0.0 - Mostly clear 10 - - - -
05/04:00am 15.9 SSE 9 13 1017.7 - 0.0 - Mostly clear 10 - - - -
05/03:30am 15.9 SSE 12 16 1017.3 - 0.0 - Mostly clear 10 - - - -
05/03:00am 16.2 SSE 11 15 1017.4 F 0.0 Fine Mostly clear 25 - - - -
05/02:30am 16.4 SSE 13 18 1017.7 - 0.0 - Mostly clear 10 - - - -
05/02:00am 16.5 SSE 10 15 1018.0 - 0.0 - Mostly clear 10 - - - -
05/01:30am 16.5 SSE 10 14 1018.4 - 0.0 - Mostly clear 10 - - - -
05/01:00am 16.8 SSE 11 15 1018.5 - 0.0 - Mostly clear 10 - - - -
05/12:30am 16.8 SSE 12 16 1018.5 - 0.0 - Mostly clear 10 - - - -
05/12:00am 16.9 S 11 17 1018.5 F 0.0 Fine Mostly clear 25 - - - -
 
Date/Time
CDT
Temp

°C
Wind Pressure Rain
since 9am
mm
Weather Cloud Vis
km
Sea
Height
m
Swell
Dir
 
Speed
knots
Gust
knots
hPa Trend Height
m
Period
s
Dir
04/11:30pm 17.0 S 11 18 1018.7 - 0.0 - Mostly clear 10 - - - -
04/11:00pm 17.3 S 12 19 1018.9 - 0.0 - Mostly clear 10 - - - -
04/10:30pm 17.1 SSE 12 18 1019.2 - 0.0 - Mostly clear 10 - - - -
04/10:00pm 17.2 S 13 18 1019.2 - 0.0 - Mostly clear 10 - - - -
04/09:30pm 17.4 S 11 17 1019.1 - 0.0 - Mostly clear 10 - - - -
04/09:00pm 17.6 SSE 9 14 1018.9 S 0.0 Fine Mostly clear 25 - - - -
04/08:30pm 18.2 S 13 19 1018.7 - 0.0 - Mostly clear 10 - - - -
04/08:00pm 19.0 SSE 16 21 1018.4 - 0.0 - Mostly clear 10 - - - -
04/07:30pm 20.4 S 15 20 1018.1 - 0.0 - Mostly clear 10 - - - -
04/07:00pm 21.1 SSE 15 20 1017.8 - 0.0 - Mostly clear 10 - - - -
04/06:30pm 21.7 S 17 22 1017.8 - 0.0 - Mostly clear 10 - - - -
04/06:00pm 21.8 SSE 15 20 1017.8 R 0.0 Fine Mostly clear 30 - - - -
04/05:30pm 22.3 SSE 15 20 1017.8 - 0.0 - Mostly clear 10 - - - -
04/05:00pm 22.8 SSE 18 26 1017.8 - 0.0 - Mostly clear 10 - - - -
04/04:30pm 22.9 SSE 16 21 1018.0 - 0.0 - Mostly clear 10 - - - -
04/04:10pm 22.8 SSE 15 25 1018.2 - 0.0 - Mostly clear 10 - - - -
04/04:00pm 23.1 SSE 15 22 1018.3 - 0.0 - Mostly clear 10 - - - -
04/03:53pm 22.4 SSE 15 25 1018.3 - 0.0 - Mostly clear 10 - - - -
04/03:30pm 22.9 SSE 15 20 1018.4 - 0.0 - Mostly clear 10 - - - -
04/03:00pm 23.3 SSE 16 22 1018.5 F 0.0 Fine Mostly clear 30 - - - -
04/02:30pm 23.6 S 16 20 1018.7 - 0.0 - Mostly clear 10 - - - -
04/02:19pm 23.1 S 17 27 1018.8 - 0.0 - Mostly clear 10 - - - -
04/02:00pm 23.0 S 16 23 1019.0 - 0.0 - Mostly clear 10 - - - -
04/01:30pm 22.6 SSE 15 21 1019.3 - 0.0 - Mostly clear 10 - - - -
04/01:00pm 22.4 SSE 15 20 1019.7 - 0.0 - Mostly clear 10 - - - -
04/12:30pm 22.0 SSE 17 21 1020.1 - 0.0 - Mostly clear 10 - - - -

Other Formats:

Comma delimited format used in spreadsheet applications
http://www.bom.gov.au/fwo/IDS60701/IDS60701.94672.axf

JavaScript Object Notation format (JSON) in row-major order
http://www.bom.gov.au/fwo/IDS60701/IDS60701.94672.json